23:49
Airports
Links
Donate
Help keep this website running!
PayPal
Bitcoin
METAR
PHOG 192254Z 06015G30KT 10SM FEW050 30/18 A3006 RMK AO2 PK WND 05030/2246 SLP185 T03000183
Current Weather Conditions at PHOG
VFR 22:54:00 19-10-17
Automated station
Altimeter:30.06 hg
Temp:30.0°c 86°f
Dew point:18.3°c 64°f
Wind:15 knots, 17.3 mph, 8 m/s, from 60°
Visibility:10.0 statute miles
5000(FEW) A few
Past METAR reports
VFR 21:54:00 19-10-17
Automated station
Altimeter:30.09 hg
Temp:30.0°c 86°f
Dew point:18.3°c 64°f
Wind:19 knots, 21.9 mph, 10 m/s, from 60°
Visibility:10.0 statute miles
4500(FEW) A few
3500(FEW) A few
PHOG 192154Z 06019G29KT 10SM FEW035 FEW045 30/18 A3009 RMK AO2 PK WND 07031/2142 RAB2058E06 SLP193 P0000 T03000183
VFR 20:54:00 19-10-17
Automated station
Altimeter:30.10 hg
Temp:28.9°c 82°f
Dew point:17.8°c 63°f
Wind:17 knots, 19.6 mph, 9 m/s, from 60°
Visibility:10.0 statute miles
6000(BKN) Broken
3500(SCT) Scattered
2500(FEW) A few
PHOG 192054Z COR 06017G28KT 10SM FEW025 SCT035 BKN060 29/18 A3010 RMK AO2 PK WND 05029/2030 SLP198 60000 T02890178 58002
VFR 19:54:00 19-10-17
Automated station
Altimeter:30.12 hg
Temp:28.9°c 82°f
Dew point:18.9°c 64°f
Wind:16 knots, 18.4 mph, 8 m/s, from 60°
Visibility:10.0 statute miles
6000(SCT) Scattered
4500(SCT) Scattered
3500(FEW) A few
PHOG 191954Z 06016G28KT 10SM FEW035 SCT045 SCT060 29/19 A3012 RMK AO2 PK WND 05034/1904 RAE1856 SLP203 P0000 T02890189
VFR 18:54:00 19-10-17
Automated station
Altimeter:30.12 hg
Temp:27.2°c 81°f
Dew point:19.4°c 66°f
Wind:15 knots, 17.3 mph, 8 m/s, from 50°
Visibility:10.0 statute miles
6000(SCT) Scattered
3500(FEW) A few
PHOG 191854Z 05015KT 10SM -RA FEW035 SCT060 27/19 A3012 RMK AO2 RAB48 SLP205 P0000 T02720194
VFR 17:54:00 19-10-17
Automated station
Altimeter:30.11 hg
Temp:26.1°c 79°f
Dew point:20.0°c 68°f
Wind:11 knots, 12.7 mph, 6 m/s, from 50°
Visibility:10.0 statute miles
5000(SCT) Scattered
3500(FEW) A few
PHOG 191754Z 05011G16KT 10SM FEW035 SCT050 26/20 A3011 RMK AO2 SLP200 60001 T02610200 10261 20228 53012
TAF
PHOG 192320Z 2000/2024 05020G30KT P6SM VCSH FEW035 SCT050 FM200600 05014G20KT P6SM VCSH FEW035 SCT050 FM202000 05020G30KT P6SM VCSH FEW035 SCT050
Forecast at PHOG
00:00 20-10-17 to 06:00 20-10-17
VCSH
Wind:20 Knots from 50°
Visibility:6.21 statute miles
3500FEW A few
5000SCT Scattered
FM 06:00 20-10-17 to 20:00 20-10-17
VCSH
Wind:14 Knots from 50°
Visibility:6.21 statute miles
3500FEW A few
5000SCT Scattered
FM 20:00 20-10-17 to 00:00 21-10-17
VCSH
Wind:20 Knots from 50°
Visibility:6.21 statute miles
3500FEW A few
5000SCT Scattered